Huxford, AL (36543)

11:11 PM CST on March 06, 2015 (GMT -0600)
B.E.C. | Change Station
CLOSE
Current Station
Personal Weather Station
Location: Atmore, AL
Elevation: 272 ft
Nearby Weather Stations
Active Advisory: Freeze Warning Active Notice: Record Report

Elev 272 ft 31.07 °N, 87.37 °W | Updated 4 minutes ago

Partly Cloudy
Partly Cloudy
38.4 °F
Feels Like 38 °F
N
2.0
Wind Variable Wind from NW
Gusts 11.0 mph

Today
High -- | Low -- °F
--% Chance of Precip.
Yesterday
High -- | Low -- °F
Precip. -- in
6:11 AM 5:51 PM
Full, 98% visible
Pressure 30.46 in
Visibility 10.0 miles
Clouds Clear
Windchill 38 °F
Dew Point 29 °F
Humidity 68%
Rainfall in
Snow Depth Not available.
UV 0 out of 12
Pollen 8.50 out of 12
Air Quality Not available.
Flu Activity Not available.
METAR KGZH 070453Z AUTO 34004KT 10SM CLR 02/M04 A3045 RMK AO2 SLP314 T00221039

More Conditions Fewer Conditions

Pressure 30.46 in
Visibility 10.0 miles
Clouds Clear
Windchill 38 °F
Dew Point 29 °F
Humidity 68%
Rainfall in
Snow Depth Not available.
UV 0 out of 12
Pollen 8.50 out of 12
Air Quality Not available.
Flu Activity Not available.
METAR KGZH 070453Z AUTO 34004KT 10SM CLR 02/M04 A3045 RMK AO2 SLP314 T00221039

More Conditions Fewer Conditions

10-Day Weather Forecast

Almanac

Astronomy

Mar. 06, 2015 Rise Set
Actual Time
Civil Twilight
Nautical Twilight
Astronomical Twilight
Moon
Length of Visible Light
Length of Day
Tomorrow will be .
, % of the Moon is Illuminated

Today's Extremes

State Highs State Lows

Community

WunderPhotos

Upload Photos

1,803,548 photos uploaded!

WunderBlogs® & News

Nearby

Air Quality

  Air Quality AQ Index Pollutant
Not available.

Snow Depth

Station Depth Elevation

Earthquake Activity

City Distance Mag. Time & Date
Minimum magnitude displayed is 2.5.

Coastal Water Temperatures

Place Temperature

Nearby Weather Stations

Freeze Warning
Statement as of 3:09 PM CST on March 06, 2015

... Freeze warning in effect from 10 PM this evening to 8 am CST
Saturday...

The National Weather Service in Mobile has issued a freeze
warning... which is in effect from 10 PM this evening to 8 am CST
Saturday.

* Temperature... lows will drop into the mid to upper 20s along and
west of Interstate 65. A few lower 20s are possible in far inland
southwest Alabama and southeast Mississippi. Lows will be in the
upper 20s to lower 30s further to the south and east of Interstate
65.

* Impacts... the freezing temperatures can damage or kill sensitive
vegetation and new growth.

Precautionary/preparedness actions...

A freeze warning means sub-freezing temperatures are imminent or
highly likely. These conditions will kill crops... new growth... and
other sensitive vegetation.